Time;durP1;ratioP1;P1;durP2;ratioP2;P2;SDS_P1;SDS_P2;PMS_P1;PMS_P2;Temp;Humidity;BMP_temperature;BMP_pressure;BME280_temperature;BME280_humidity;BME280_pressure;Samples;Min_cycle;Max_cycle;Signal;HPM_P1;HPM_P2
2024/01/21 10:04:23;;;;;;;34.60;23.30;;;;;;;3.37;75.98;101942.43;105387;1298;545683;-82
2024/01/21 10:06:52;;;;;;;32.40;22.30;;;;;;;3.54;77.02;101938.48;109652;1287;22152;-82
2024/01/21 10:09:21;;;;;;;32.00;22.60;;;;;;;3.48;75.61;101939.76;109642;1287;22328;-85
2024/01/21 10:11:58;;;;;;;33.60;21.90;;;;;;;3.32;74.63;101936.46;108938;1295;22244;-83
2024/01/21 10:14:29;;;;;;;29.60;21.10;;;;;;;3.19;74.68;101935.02;109172;1291;22343;-84
2024/01/21 10:16:56;;;;;;;34.10;23.70;;;;;;;3.04;74.39;101945.25;108450;1292;546862;-82
2024/01/21 10:19:34;;;;;;;30.80;22.70;;;;;;;2.85;74.40;101942.30;109169;1292;22489;-83
2024/01/21 10:22:09;;;;;;;33.30;23.30;;;;;;;2.78;75.07;101938.66;109347;1290;22299;-84
2024/01/21 10:24:40;;;;;;;30.10;23.50;;;;;;;2.76;75.39;101929.84;109159;1291;23191;-83
2024/01/21 10:27:09;;;;;;;32.90;23.40;;;;;;;2.77;75.69;101929.17;109327;1292;22645;-83
2024/01/21 10:29:41;;;;;;;32.30;23.60;;;;;;;2.81;75.70;101924.00;109300;1285;22986;-83
2024/01/21 10:32:12;;;;;;;28.00;21.90;;;;;;;2.83;75.60;101928.45;109790;1285;22117;-83
2024/01/21 10:34:49;;;;;;;33.10;24.60;;;;;;;2.75;75.14;101927.40;109809;1282;22609;-83
2024/01/21 10:37:17;;;;;;;32.80;24.60;;;;;;;2.70;75.75;101929.59;109823;1283;22287;-83
2024/01/21 10:39:46;;;;;;;33.60;25.70;;;;;;;2.72;75.83;101927.92;109814;1285;22543;-82
2024/01/21 10:42:14;;;;;;;38.80;25.50;;;;;;;2.73;76.15;101924.16;109814;1285;22187;-82
2024/01/21 10:44:46;;;;;;;34.00;25.00;;;;;;;2.76;76.06;101927.92;109810;1284;22385;-83
2024/01/21 10:47:15;;;;;;;35.60;25.40;;;;;;;2.77;75.92;101929.54;109819;1281;22302;-83
2024/01/21 10:49:45;;;;;;;35.40;25.80;;;;;;;2.74;76.15;101923.14;109697;1285;22117;-82
2024/01/21 10:52:16;;;;;;;34.40;25.40;;;;;;;2.75;76.02;101921.80;109774;1285;22148;-83
2024/01/21 10:54:46;;;;;;;35.70;25.80;;;;;;;2.77;76.14;101922.92;109853;1272;22218;-84
2024/01/21 10:57:17;;;;;;;33.40;25.00;;;;;;;2.83;76.35;101929.17;109802;1284;22282;-81
2024/01/21 10:59:47;;;;;;;32.30;23.90;;;;;;;2.85;75.94;101928.38;109570;1289;22236;-84
2024/01/21 11:02:22;;;;;;;32.20;24.30;;;;;;;2.81;75.82;101924.55;109639;1289;22159;-84
2024/01/21 11:04:55;;;;;;;32.30;24.90;;;;;;;2.76;75.80;101923.75;109635;1289;22322;-84
2024/01/21 11:07:24;;;;;;;32.00;24.00;;;;;;;2.69;75.84;101924.85;109617;1289;22204;-83
2024/01/21 11:09:54;;;;;;;33.00;23.40;;;;;;;2.71;76.17;101927.55;109593;1289;22308;-82
2024/01/21 11:12:22;;;;;;;32.50;23.60;;;;;;;2.74;76.19;101930.79;109608;1290;22172;-84
2024/01/21 11:15:31;;;;;;;30.90;21.80;;;;;;;2.76;76.12;101932.09;109480;1290;22245;-88
2024/01/21 11:18:10;;;;;;;29.70;21.70;;;;;;;2.79;76.06;101932.46;109877;1284;22206;-82
2024/01/21 11:20:39;;;;;;;33.00;23.90;;;;;;;2.77;76.08;101931.45;109755;1285;22127;-83
2024/01/21 11:23:14;;;;;;;35.60;24.90;;;;;;;2.77;76.37;101928.84;109690;1285;22122;-83
2024/01/21 11:26:21;;;;;;;34.10;24.60;;;;;;;2.77;76.37;101924.14;109202;1292;22396;-85
2024/01/21 11:29:43;;;;;;;33.00;24.20;;;;;;;2.79;76.57;101921.14;109470;1292;22152;-84
2024/01/21 11:33:38;;;;;;;34.20;25.10;;;;;;;2.84;76.29;101915.42;108895;1299;22303;-84
2024/01/21 11:36:50;;;;;;;34.30;23.50;;;;;;;2.87;76.34;101914.69;108496;1299;22292;-87
2024/01/21 11:40:39;;;;;;;36.80;25.90;;;;;;;2.92;76.44;101913.89;108187;1303;22192;-86
2024/01/21 11:44:29;;;;;;;37.10;26.20;;;;;;;3.02;76.14;101906.52;109009;1292;22710;-86
2024/01/21 11:47:40;;;;;;;37.80;26.80;;;;;;;3.04;75.97;101906.98;108648;1298;22249;-85
2024/01/21 11:51:08;;;;;;;36.70;26.70;;;;;;;3.02;76.03;101897.98;107634;1308;22389;-86
2024/01/21 11:55:00;;;;;;;37.00;26.90;;;;;;;3.07;76.11;101896.19;107540;1308;22213;-84
2024/01/21 11:58:17;;;;;;;33.80;26.40;;;;;;;3.04;75.79;101900.69;107542;1308;22384;-85
2024/01/21 12:01:27;;;;;;;31.80;24.80;;;;;;;3.08;76.02;101897.58;107617;1308;22237;-85
2024/01/21 12:04:48;;;;;;;35.90;26.90;;;;;;;3.17;76.03;101898.32;107472;1308;22228;-83
2024/01/21 12:08:00;;;;;;;37.70;26.60;;;;;;;3.27;75.80;101899.27;108265;1300;22145;-85
2024/01/21 12:11:29;;;;;;;33.70;25.20;;;;;;;3.29;75.50;101890.87;109050;1292;22185;-85
2024/01/21 12:14:37;;;;;;;34.30;25.00;;;;;;;3.32;75.30;101886.62;109339;1287;22188;-85
2024/01/21 12:18:15;;;;;;;38.30;27.00;;;;;;;3.26;74.94;101878.90;109671;1287;22860;-86
2024/01/21 12:22:04;;;;;;;34.10;24.50;;;;;;;3.20;75.03;101879.31;109687;1284;22198;-86
2024/01/21 12:24:56;;;;;;;32.90;24.80;;;;;;;3.19;75.12;101871.63;109828;1284;22345;-86
2024/01/21 12:28:06;;;;;;;34.70;24.50;;;;;;;3.18;74.94;101871.74;110010;1275;22338;-87
2024/01/21 12:31:40;;;;;;;32.70;24.40;;;;;;;3.19;74.99;101864.82;110484;1275;22362;-83
2024/01/21 12:34:35;;;;;;;33.50;25.00;;;;;;;3.22;74.89;101863.92;110455;1275;22168;-85
2024/01/21 12:38:29;;;;;;;33.20;24.10;;;;;;;3.21;74.66;101859.36;110528;1275;22241;-86
2024/01/21 12:42:01;;;;;;;33.20;23.20;;;;;;;3.16;74.62;101851.11;110466;1265;22792;-86
2024/01/21 12:44:59;;;;;;;39.90;27.50;;;;;;;3.16;74.63;101848.83;110656;1265;22115;-85
2024/01/21 12:47:47;;;;;;;36.40;27.10;;;;;;;3.12;74.84;101846.56;110525;1273;22968;-87
2024/01/21 12:50:54;;;;;;;36.10;26.80;;;;;;;3.08;74.58;101846.58;110592;1271;22115;-85
2024/01/21 12:53:54;;;;;;;36.40;26.50;;;;;;;3.04;74.79;101848.33;110664;1268;23148;-86
2024/01/21 12:57:10;;;;;;;40.20;27.00;;;;;;;3.04;74.76;101842.73;110673;1269;22292;-85
2024/01/21 13:00:43;;;;;;;34.30;24.80;;;;;;;3.04;74.63;101840.50;110676;1273;22429;-86
2024/01/21 13:03:52;;;;;;;39.50;28.90;;;;;;;3.01;74.44;101837.06;110116;1279;22861;-82
2024/01/21 13:07:27;;;;;;;34.30;27.80;;;;;;;3.01;74.69;101835.83;109579;1290;22810;-86
2024/01/21 13:11:15;;;;;;;39.10;28.00;;;;;;;3.05;74.95;101839.84;109443;1290;22442;-84
2024/01/21 13:15:24;;;;;;;36.60;27.60;;;;;;;3.02;74.42;101840.38;109799;1290;22210;-85
2024/01/21 13:18:55;;;;;;;39.00;27.60;;;;;;;2.86;74.63;101820.18;109654;1290;22908;-85
2024/01/21 13:22:17;;;;;;;34.50;25.90;;;;;;;2.86;74.80;101818.79;109746;1290;22170;-85
2024/01/21 13:25:25;;;;;;;38.00;25.40;;;;;;;2.83;74.96;101821.99;109759;1288;22150;-85
2024/01/21 13:32:35;;;;;;;33.10;22.50;;;;;;;2.91;74.83;101822.14;109061;1295;22292;-84
2024/01/21 13:35:21;;;;;;;27.80;22.20;;;;;;;2.93;74.75;101832.88;109106;1295;22167;-85
2024/01/21 13:39:08;;;;;;;29.90;21.90;;;;;;;2.92;74.53;101834.89;108842;1297;22216;-85
2024/01/21 13:42:00;;;;;;;28.80;21.80;;;;;;;2.91;74.69;101835.36;108803;1297;22191;-85
2024/01/21 13:45:30;;;;;;;28.00;21.50;;;;;;;2.93;74.80;101841.75;108959;1295;22207;-86
2024/01/21 13:48:58;;;;;;;30.60;21.50;;;;;;;2.91;74.32;101841.29;109522;1295;22198;-85
2024/01/21 13:52:25;;;;;;;31.80;21.70;;;;;;;2.76;74.43;101842.89;108846;1300;22200;-87
2024/01/21 13:55:18;;;;;;;26.20;19.40;;;;;;;2.76;74.67;101844.09;108459;1300;22231;-84
2024/01/21 13:58:19;;;;;;;27.30;21.00;;;;;;;2.76;74.40;101838.31;108741;1297;22205;-86
2024/01/21 14:02:11;;;;;;;26.30;20.40;;;;;;;2.76;74.68;101837.96;109246;1286;22364;-86
2024/01/21 14:05:21;;;;;;;30.20;22.00;;;;;;;2.71;74.52;101845.60;109696;1282;22262;-85
2024/01/21 14:07:53;;;;;;;31.50;21.70;;;;;;;2.65;74.59;101845.67;109985;1276;22656;-85
2024/01/21 14:10:22;;;;;;;29.70;21.60;;;;;;;2.61;74.66;101848.47;109842;1286;23100;-83
2024/01/21 14:12:51;;;;;;;30.60;21.40;;;;;;;2.55;74.67;101852.85;109667;1286;22171;-83
2024/01/21 14:15:19;;;;;;;29.40;20.80;;;;;;;2.50;74.83;101854.02;109774;1281;22369;-84
2024/01/21 14:17:50;;;;;;;24.20;18.90;;;;;;;2.48;74.82;101856.20;109743;1286;22332;-86
2024/01/21 14:20:17;;;;;;;28.80;20.00;;;;;;;2.48;75.20;101857.75;109808;1286;22179;-82
2024/01/21 14:22:44;;;;;;;27.90;19.20;;;;;;;2.50;75.17;101857.85;109795;1286;22662;-83
2024/01/21 14:25:27;;;;;;;28.40;19.00;;;;;;;2.47;75.15;101855.61;109767;1280;22241;-82
2024/01/21 14:27:54;;;;;;;27.00;19.50;;;;;;;2.42;74.96;101857.65;109823;1282;22384;-89
2024/01/21 14:30:26;;;;;;;36.40;21.60;;;;;;;2.36;75.08;101860.46;110019;1275;22261;-83
2024/01/21 14:32:53;;;;;;;25.70;18.90;;;;;;;2.30;75.23;101864.17;109981;1282;22161;-83
2024/01/21 14:35:21;;;;;;;26.00;20.20;;;;;;;2.26;75.36;101861.36;110140;1276;22971;-82
2024/01/21 14:37:49;;;;;;;25.60;19.10;;;;;;;2.24;75.36;101866.86;110374;1276;22217;-82
2024/01/21 14:40:16;;;;;;;21.60;18.20;;;;;;;2.20;75.47;101862.35;109930;1281;22179;-82
2024/01/21 14:42:44;;;;;;;27.80;19.70;;;;;;;2.16;75.52;101865.44;109971;1278;22642;-83
2024/01/21 14:45:11;;;;;;;26.40;21.20;;;;;;;2.13;75.81;101853.10;109937;1281;22163;-81
2024/01/21 14:47:39;;;;;;;28.00;19.40;;;;;;;2.14;75.98;101845.68;109996;1278;23068;-82
2024/01/21 14:50:06;;;;;;;29.90;21.10;;;;;;;2.09;76.07;101845.81;109992;1281;22187;-81
2024/01/21 14:52:33;;;;;;;26.10;19.70;;;;;;;2.07;76.11;101842.25;109969;1277;22240;-82
2024/01/21 14:55:01;;;;;;;28.70;19.80;;;;;;;2.08;76.22;101839.51;109959;1281;22130;-83
2024/01/21 14:57:28;;;;;;;28.60;20.20;;;;;;;2.08;76.25;101836.02;110032;1276;22373;-83
2024/01/21 14:59:56;;;;;;;23.90;18.70;;;;;;;2.07;76.39;101829.92;110268;1276;23160;-82
2024/01/21 15:02:24;;;;;;;29.50;19.90;;;;;;;2.07;76.47;101834.27;110484;1272;22273;-81
2024/01/21 15:04:53;;;;;;;29.90;19.30;;;;;;;2.06;76.48;101831.23;110486;1276;22100;-81
2024/01/21 15:07:20;;;;;;;27.40;20.20;;;;;;;2.05;76.52;101828.08;110467;1274;22347;-80
2024/01/21 15:09:48;;;;;;;25.60;18.90;;;;;;;2.02;76.52;101822.34;110357;1276;22377;-80
2024/01/21 15:12:15;;;;;;;29.50;20.20;;;;;;;1.99;76.74;101825.86;110488;1274;22236;-81
2024/01/21 15:15:18;;;;;;;26.00;19.40;;;;;;;1.99;76.80;101825.14;110473;1276;22096;-83
2024/01/21 15:17:48;;;;;;;28.30;20.80;;;;;;;2.02;76.96;101826.02;110493;1275;22230;-85
2024/01/21 15:20:16;;;;;;;27.50;20.20;;;;;;;2.02;76.99;101822.33;110439;1276;22291;-84
2024/01/21 15:22:44;;;;;;;26.10;19.90;;;;;;;2.02;77.12;101812.98;110501;1275;22135;-84
2024/01/21 15:25:12;;;;;;;28.40;22.30;;;;;;;2.04;77.07;101811.83;110334;1276;22237;-84
2024/01/21 15:27:40;;;;;;;28.80;21.50;;;;;;;2.02;77.00;101808.79;109975;1281;22817;-83
2024/01/21 15:30:08;;;;;;;27.20;20.20;;;;;;;2.00;77.07;101804.52;109961;1281;22448;-82
2024/01/21 15:32:37;;;;;;;30.00;21.20;;;;;;;1.94;76.97;101801.48;109981;1280;22358;-81
2024/01/21 15:35:04;;;;;;;29.30;20.40;;;;;;;1.90;77.18;101799.54;109892;1281;22206;-81
2024/01/21 15:37:31;;;;;;;28.50;21.00;;;;;;;1.93;77.40;101800.38;109949;1279;22158;-80
2024/01/21 15:39:59;;;;;;;26.70;20.70;;;;;;;1.96;77.48;101799.51;109938;1280;22200;-81
2024/01/21 15:42:27;;;;;;;28.10;20.30;;;;;;;1.97;77.50;101798.48;109942;1281;22443;-84
2024/01/21 15:44:55;;;;;;;27.10;21.60;;;;;;;1.93;77.30;101796.38;109992;1276;22378;-81
2024/01/21 15:47:22;;;;;;;25.00;20.40;;;;;;;1.88;77.44;101789.88;110151;1276;22371;-81
2024/01/21 15:49:49;;;;;;;28.20;20.60;;;;;;;1.82;77.19;101784.37;110342;1276;22360;-81
2024/01/21 15:52:18;;;;;;;26.90;21.20;;;;;;;1.76;77.44;101789.81;110224;1272;22157;-80
2024/01/21 15:54:47;;;;;;;26.70;19.80;;;;;;;1.77;77.68;101790.73;110221;1272;22394;-81
2024/01/21 15:57:14;;;;;;;26.50;20.00;;;;;;;1.76;77.68;101792.09;110346;1273;22309;-81
2024/01/21 15:59:46;;;;;;;27.50;20.20;;;;;;;1.75;77.57;101794.63;110401;1276;22134;-81
2024/01/21 16:02:15;;;;;;;28.10;21.50;;;;;;;1.72;77.83;101794.67;110148;1276;22381;-79
2024/01/21 16:04:42;;;;;;;26.50;20.30;;;;;;;1.72;77.96;101791.90;110384;1275;22084;-80
2024/01/21 16:07:10;;;;;;;28.20;19.80;;;;;;;1.70;77.86;101790.02;110277;1275;22222;-81
2024/01/21 16:09:39;;;;;;;23.90;18.70;;;;;;;1.69;77.89;101781.98;109943;1281;22246;-81
2024/01/21 16:12:06;;;;;;;24.90;18.20;;;;;;;1.68;77.93;101768.23;109991;1281;22962;-84
2024/01/21 16:14:33;;;;;;;22.70;18.70;;;;;;;1.68;77.99;101772.25;109987;1281;22182;-80
2024/01/21 16:17:01;;;;;;;24.20;18.60;;;;;;;1.68;77.84;101774.11;109978;1279;22477;-81
2024/01/21 16:19:28;;;;;;;22.30;18.60;;;;;;;1.66;78.00;101762.77;109599;1283;22345;-79
2024/01/21 16:21:56;;;;;;;26.90;19.70;;;;;;;1.66;78.08;101754.42;109651;1287;22259;-80
2024/01/21 16:24:25;;;;;;;23.70;18.50;;;;;;;1.67;78.09;101747.84;109549;1287;22159;-82
2024/01/21 16:26:52;;;;;;;23.90;17.90;;;;;;;1.66;78.14;101748.67;109605;1282;22365;-79
2024/01/21 16:29:19;;;;;;;21.30;17.00;;;;;;;1.64;77.98;101753.60;109902;1283;22247;-79
2024/01/21 16:31:46;;;;;;;23.90;18.00;;;;;;;1.65;77.94;101756.27;109835;1283;22317;-81
2024/01/21 16:34:13;;;;;;;24.80;18.10;;;;;;;1.67;77.98;101749.09;109950;1282;23256;-79
2024/01/21 16:36:40;;;;;;;22.80;16.90;;;;;;;1.69;77.90;101745.71;109963;1276;22369;-79
2024/01/21 16:39:07;;;;;;;21.00;17.00;;;;;;;1.68;77.79;101743.73;110356;1275;22224;-85
2024/01/21 16:41:35;;;;;;;22.70;17.30;;;;;;;1.65;77.71;101741.01;110245;1272;22131;-80
2024/01/21 16:44:03;;;;;;;22.10;17.60;;;;;;;1.59;77.53;101742.95;110278;1277;22325;-80
2024/01/21 16:46:31;;;;;;;22.90;17.30;;;;;;;1.57;77.69;101747.89;110195;1276;22851;-79
2024/01/21 16:48:58;;;;;;;23.70;16.50;;;;;;;1.58;77.91;101743.45;110152;1276;22128;-81
2024/01/21 16:51:34;;;;;;;21.00;17.00;;;;;;;1.62;77.92;101745.70;110039;1276;22229;-80
2024/01/21 16:54:03;;;;;;;;;;;;;;;1.65;77.94;101743.60;110195;1276;22270;-81
2024/01/21 16:56:33;;;;;;;21.40;17.00;;;;;;;1.63;77.72;101742.64;110298;1275;22182;-81
2024/01/21 16:59:01;;;;;;;21.40;17.20;;;;;;;1.59;77.76;101739.31;110169;1275;22273;-80
2024/01/21 17:01:34;;;;;;;21.00;17.00;;;;;;;1.54;77.57;101741.33;110201;1276;22310;-81
2024/01/21 17:04:01;;;;;;;21.30;16.40;;;;;;;1.54;77.77;101749.13;110353;1272;22123;-81
2024/01/21 17:06:29;;;;;;;24.40;18.10;;;;;;;1.54;77.82;101753.83;110265;1276;22117;-82
2024/01/21 17:08:57;;;;;;;23.20;17.70;;;;;;;1.55;78.00;101752.65;110241;1276;22102;-81
2024/01/21 17:11:29;;;;;;;24.30;18.40;;;;;;;1.57;78.03;101745.45;110219;1276;22194;-82
2024/01/21 17:13:57;;;;;;;22.00;18.30;;;;;;;1.57;77.80;101742.69;110470;1272;22122;-80
2024/01/21 17:16:25;;;;;;;24.80;19.60;;;;;;;1.53;77.84;101736.27;110343;1276;22138;-81
2024/01/21 17:19:04;;;;;;;25.00;19.30;;;;;;;1.54;77.94;101733.86;110426;1276;22291;-80
2024/01/21 17:21:33;;;;;;;23.60;19.20;;;;;;;1.54;78.11;101722.94;110257;1275;22214;-80
2024/01/21 17:24:02;;;;;;;22.60;17.30;;;;;;;1.56;77.89;101725.30;110259;1276;22149;-79
2024/01/21 17:26:29;;;;;;;24.30;19.20;;;;;;;1.57;77.85;101727.77;110423;1275;22125;-80
2024/01/21 17:28:57;;;;;;;25.30;19.40;;;;;;;1.56;77.82;101731.02;110314;1276;22921;-80
2024/01/21 17:31:25;;;;;;;27.20;21.20;;;;;;;1.57;77.98;101729.16;110490;1276;22216;-80
2024/01/21 17:33:54;;;;;;;25.40;20.10;;;;;;;1.61;78.12;101723.09;110446;1275;22124;-79
2024/01/21 17:36:22;;;;;;;26.10;21.10;;;;;;;1.62;77.78;101709.09;110336;1275;22201;-81
2024/01/21 17:38:50;;;;;;;28.60;19.90;;;;;;;1.58;77.53;101704.36;110514;1266;22337;-82
2024/01/21 17:41:18;;;;;;;28.80;20.80;;;;;;;1.54;77.49;101703.98;110257;1276;22874;-80
2024/01/21 17:43:46;;;;;;;25.10;19.00;;;;;;;1.53;77.50;101699.41;110173;1276;22113;-82
2024/01/21 17:46:14;;;;;;;24.80;20.80;;;;;;;1.51;77.43;101701.75;110161;1276;22131;-87
2024/01/21 17:48:42;;;;;;;29.80;22.30;;;;;;;1.48;77.51;101702.66;110415;1273;22193;-81
2024/01/21 17:51:12;;;;;;;26.40;20.90;;;;;;;1.47;77.54;101690.48;110435;1275;22166;-79
2024/01/21 17:53:40;;;;;;;28.40;20.80;;;;;;;1.48;77.57;101680.97;110289;1276;22113;-80
2024/01/21 17:56:10;;;;;;;27.30;21.20;;;;;;;1.49;77.67;101680.13;109978;1280;22704;-81
2024/01/21 17:58:37;;;;;;;28.40;20.30;;;;;;;1.47;77.40;101684.40;110000;1278;22247;-80
2024/01/21 18:01:04;;;;;;;28.10;21.20;;;;;;;1.50;77.51;101694.61;109989;1281;22953;-81
2024/01/21 18:03:33;;;;;;;27.20;20.50;;;;;;;1.52;77.40;101694.90;109950;1281;22974;-80
2024/01/21 18:06:01;;;;;;;33.50;22.90;;;;;;;1.53;77.40;101692.64;109966;1281;22177;-80
2024/01/21 18:08:29;;;;;;;32.00;23.30;;;;;;;1.51;77.23;101693.27;110003;1281;22162;-82
2024/01/21 18:10:56;;;;;;;30.50;22.00;;;;;;;1.48;77.14;101692.06;109993;1275;22163;-80
2024/01/21 18:13:24;;;;;;;29.60;22.50;;;;;;;1.46;77.21;101691.27;110002;1276;22340;-82
2024/01/21 18:15:50;;;;;;;31.40;22.40;;;;;;;1.47;77.44;101686.27;110528;1275;22103;-81
2024/01/21 18:18:20;;;;;;;27.00;20.60;;;;;;;1.52;77.49;101682.02;110282;1275;22464;-82
2024/01/21 18:20:47;;;;;;;30.40;21.80;;;;;;;1.55;77.22;101666.53;110327;1272;22835;-80
2024/01/21 18:23:14;;;;;;;32.90;21.40;;;;;;;1.55;77.13;101649.52;110290;1272;22107;-80
2024/01/21 18:25:42;;;;;;;24.60;20.60;;;;;;;1.55;77.12;101637.00;110334;1275;22207;-82
2024/01/21 18:28:09;;;;;;;29.50;22.10;;;;;;;1.51;76.90;101633.00;110408;1275;22194;-80
2024/01/21 18:30:36;;;;;;;28.40;20.50;;;;;;;1.44;76.84;101639.11;110509;1275;23229;-83
2024/01/21 18:33:03;;;;;;;27.00;19.60;;;;;;;1.39;77.08;101648.73;110255;1276;22918;-82
2024/01/21 18:35:30;;;;;;;25.70;19.10;;;;;;;1.41;77.36;101664.85;110260;1275;22109;-82
2024/01/21 18:37:59;;;;;;;25.00;18.70;;;;;;;1.41;77.00;101680.80;109887;1283;22922;-81
2024/01/21 18:40:27;;;;;;;28.30;20.70;;;;;;;1.39;77.10;101669.59;109804;1285;22216;-82
2024/01/21 18:42:54;;;;;;;25.70;19.20;;;;;;;1.38;77.15;101649.08;109854;1284;22198;-82
2024/01/21 18:45:22;;;;;;;27.40;19.70;;;;;;;1.34;76.94;101643.85;109867;1284;22208;-83
2024/01/21 18:47:49;;;;;;;25.50;19.40;;;;;;;1.30;77.01;101645.20;109885;1284;22127;-81
2024/01/21 18:50:17;;;;;;;26.40;19.90;;;;;;;1.28;76.97;101638.15;109743;1284;22429;-83
2024/01/21 18:52:44;;;;;;;22.40;17.80;;;;;;;1.27;76.95;101636.89;109847;1281;22661;-81
2024/01/21 18:55:11;;;;;;;22.50;18.60;;;;;;;1.27;77.09;101620.21;109758;1284;22169;-84
2024/01/21 18:57:38;;;;;;;25.40;20.00;;;;;;;1.27;77.07;101610.66;109860;1283;22344;-80
2024/01/21 19:00:06;;;;;;;24.70;18.50;;;;;;;1.25;76.96;101601.23;109887;1278;22156;-80
2024/01/21 19:02:33;;;;;;;25.60;20.20;;;;;;;1.21;76.84;101581.08;110060;1276;22322;-81
2024/01/21 19:05:02;;;;;;;24.20;18.20;;;;;;;1.16;76.85;101562.09;110519;1276;22765;-81
2024/01/21 19:07:30;;;;;;;22.90;17.60;;;;;;;1.15;77.05;101563.41;110409;1275;23160;-80
2024/01/21 19:10:07;;;;;;;23.40;17.80;;;;;;;1.10;76.87;101559.91;110100;1276;22969;-80
2024/01/21 19:12:34;;;;;;;24.80;18.90;;;;;;;1.09;77.00;101574.92;110192;1276;22928;-79
2024/01/21 19:15:01;;;;;;;24.20;18.20;;;;;;;1.07;77.11;101582.98;110391;1272;22146;-81
2024/01/21 19:17:28;;;;;;;25.80;19.50;;;;;;;1.09;77.21;101578.06;110426;1271;22219;-81
2024/01/21 19:19:56;;;;;;;21.90;17.60;;;;;;;1.12;77.41;101563.64;110225;1273;22334;-81
2024/01/21 19:22:24;;;;;;;23.30;17.90;;;;;;;1.14;77.24;101565.64;110364;1275;22140;-79
2024/01/21 19:24:52;;;;;;;21.80;16.50;;;;;;;1.15;77.18;101551.98;110331;1276;22149;-81
2024/01/21 19:27:20;;;;;;;21.10;16.80;;;;;;;1.15;77.09;101545.76;110396;1276;22905;-82
2024/01/21 19:29:48;;;;;;;25.40;17.50;;;;;;;1.11;76.86;101544.17;110421;1276;22184;-80
2024/01/21 19:32:15;;;;;;;24.00;18.20;;;;;;;1.08;77.02;101537.94;110281;1275;22229;-82
2024/01/21 19:34:44;;;;;;;25.00;17.40;;;;;;;1.03;76.75;101532.65;110084;1276;22119;-81
2024/01/21 19:37:14;;;;;;;20.00;15.00;;;;;;;0.93;76.77;101527.89;110266;1276;22128;-82
2024/01/21 19:39:41;;;;;;;22.70;17.60;;;;;;;0.90;76.87;101529.63;110386;1274;22794;-80
2024/01/21 19:42:08;;;;;;;21.60;17.20;;;;;;;0.91;77.11;101521.20;110272;1275;23012;-81
2024/01/21 19:44:36;;;;;;;23.90;17.30;;;;;;;0.91;77.04;101528.44;110262;1276;22082;-82
2024/01/21 19:47:04;;;;;;;20.60;16.80;;;;;;;0.89;77.10;101540.67;110538;1275;22961;-81
2024/01/21 19:49:31;;;;;;;23.90;18.00;;;;;;;0.88;77.13;101554.84;110358;1276;22215;-81
2024/01/21 19:51:59;;;;;;;25.40;18.40;;;;;;;0.86;77.09;101559.42;110526;1275;22319;-83
2024/01/21 19:54:26;;;;;;;26.30;18.90;;;;;;;0.83;77.06;101553.91;110300;1275;22202;-85
2024/01/21 19:56:53;;;;;;;25.60;18.80;;;;;;;0.87;77.34;101558.61;110520;1275;22131;-84
2024/01/21 19:59:21;;;;;;;22.70;17.90;;;;;;;0.88;77.22;101546.54;110280;1276;22143;-81
2024/01/21 20:01:48;;;;;;;25.40;18.50;;;;;;;0.84;77.04;101535.58;110464;1275;22347;-82
2024/01/21 20:04:15;;;;;;;23.30;18.50;;;;;;;0.81;77.16;101533.20;110267;1275;22426;-82
2024/01/21 20:06:43;;;;;;;25.10;17.80;;;;;;;0.80;77.22;101533.64;110336;1275;22204;-81
2024/01/21 20:09:11;;;;;;;27.00;20.00;;;;;;;0.76;77.21;101526.16;110173;1276;22143;-82
2024/01/21 20:11:38;;;;;;;24.00;18.00;;;;;;;0.74;77.15;101521.57;110259;1276;22078;-82
2024/01/21 20:14:08;;;;;;;22.30;17.70;;;;;;;0.69;77.11;101521.54;110161;1276;22851;-82
2024/01/21 20:16:36;;;;;;;26.20;19.60;;;;;;;0.67;77.18;101515.50;110271;1276;22858;-83
2024/01/21 20:19:03;;;;;;;26.20;18.70;;;;;;;0.67;77.44;101509.08;110260;1276;22386;-81
2024/01/21 20:21:30;;;;;;;27.20;20.30;;;;;;;0.66;77.43;101502.29;110414;1276;22268;-84
2024/01/21 20:23:58;;;;;;;26.90;20.10;;;;;;;0.64;77.44;101503.90;110380;1275;22902;-82
2024/01/21 20:26:29;;;;;;;26.30;20.30;;;;;;;0.61;77.50;101490.95;109901;1281;22152;-82
2024/01/21 20:28:59;;;;;;;29.40;20.30;;;;;;;0.61;77.53;101481.54;110025;1281;23009;-83
2024/01/21 20:31:26;;;;;;;26.80;20.60;;;;;;;0.61;77.64;101471.15;110006;1281;23024;-82
2024/01/21 20:33:54;;;;;;;27.00;21.10;;;;;;;0.63;77.65;101470.39;109960;1281;22605;-83
2024/01/21 20:36:22;;;;;;;27.80;21.00;;;;;;;0.61;77.69;101460.60;109947;1281;22182;-82
2024/01/21 20:38:49;;;;;;;28.30;20.90;;;;;;;0.60;77.71;101456.20;109935;1281;23071;-82
2024/01/21 20:41:18;;;;;;;28.00;21.80;;;;;;;0.60;77.78;101462.80;110017;1278;22258;-83
2024/01/21 20:43:47;;;;;;;31.00;22.40;;;;;;;0.60;77.74;101464.00;109551;1282;22145;-81
2024/01/21 20:46:14;;;;;;;26.80;21.10;;;;;;;0.59;77.82;101461.21;109923;1268;22181;-83
2024/01/21 20:48:42;;;;;;;30.70;22.30;;;;;;;0.61;77.82;101456.95;109961;1279;22138;-81
2024/01/21 20:51:10;;;;;;;31.00;23.10;;;;;;;0.60;77.73;101449.09;109703;1286;23057;-83
2024/01/21 20:53:37;;;;;;;34.40;23.40;;;;;;;0.55;77.85;101441.78;109640;1285;22216;-82
2024/01/21 20:56:06;;;;;;;32.90;24.20;;;;;;;0.53;77.98;101449.45;109763;1287;22366;-83
2024/01/21 20:58:35;;;;;;;31.00;23.20;;;;;;;0.50;78.00;101458.34;109736;1281;22353;-83
2024/01/21 21:01:02;;;;;;;31.30;23.20;;;;;;;0.50;78.08;101457.83;109748;1281;22172;-82
2024/01/21 21:03:39;;;;;;;28.70;23.40;;;;;;;0.51;78.06;101454.73;110015;1276;23112;-82
2024/01/21 21:06:09;;;;;;;33.60;25.00;;;;;;;0.51;78.13;101451.24;110025;1281;22146;-84
2024/01/21 21:08:40;;;;;;;32.30;24.80;;;;;;;0.53;78.22;101439.21;110113;1276;22349;-83
2024/01/21 21:11:08;;;;;;;31.40;23.80;;;;;;;0.55;78.34;101426.13;110502;1272;22099;-83
2024/01/21 21:13:41;;;;;;;33.60;24.10;;;;;;;0.54;78.23;101424.23;110128;1276;22151;-82
2024/01/21 21:16:09;;;;;;;33.80;24.80;;;;;;;0.52;78.06;101431.03;110097;1276;22836;-82
2024/01/21 21:18:36;;;;;;;29.00;22.90;;;;;;;0.51;78.37;101428.55;110084;1276;22228;-82
2024/01/21 21:21:05;;;;;;;30.00;22.50;;;;;;;0.53;78.29;101425.00;110211;1276;23015;-82
2024/01/21 21:23:33;;;;;;;33.20;24.40;;;;;;;0.55;78.20;101426.70;110167;1268;22281;-82
2024/01/21 21:26:00;;;;;;;30.50;23.50;;;;;;;0.57;78.35;101429.38;110092;1276;22130;-83
2024/01/21 21:28:28;;;;;;;32.70;24.60;;;;;;;0.60;78.41;101429.02;110259;1276;22137;-82
2024/01/21 21:30:57;;;;;;;34.20;23.70;;;;;;;0.63;78.45;101431.59;110183;1277;22841;-83
2024/01/21 21:33:27;;;;;;;34.50;24.60;;;;;;;0.62;78.31;101431.69;110100;1276;22111;-83
2024/01/21 21:35:57;;;;;;;31.60;23.40;;;;;;;0.63;78.41;101431.55;110079;1276;22288;-83
2024/01/21 21:38:25;;;;;;;35.20;24.60;;;;;;;0.68;78.43;101428.54;110158;1275;23154;-83
2024/01/21 21:40:52;;;;;;;29.90;22.90;;;;;;;0.71;78.25;101428.52;110088;1277;23502;-82
2024/01/21 21:43:20;;;;;;;30.40;23.90;;;;;;;0.72;78.27;101426.29;109787;1283;22118;-81
2024/01/21 21:45:47;;;;;;;33.30;24.50;;;;;;;0.73;78.09;101425.27;109908;1283;22901;-82
2024/01/21 21:48:17;;;;;;;31.40;23.90;;;;;;;0.72;78.06;101427.83;109804;1283;22845;-84
2024/01/21 21:50:45;;;;;;;29.80;22.90;;;;;;;0.71;78.01;101426.91;109920;1283;22482;-81
2024/01/21 21:53:12;;;;;;;31.50;24.50;;;;;;;0.69;77.97;101423.20;109907;1275;22142;-82
2024/01/21 21:55:44;;;;;;;29.10;22.40;;;;;;;0.71;77.98;101424.86;109972;1282;22183;-84
2024/01/21 21:58:14;;;;;;;30.70;20.80;;;;;;;0.74;77.86;101432.46;109964;1283;22147;-83
2024/01/21 22:00:42;;;;;;;30.50;23.40;;;;;;;0.74;77.75;101423.77;109622;1284;22901;-83
2024/01/21 22:03:10;;;;;;;35.10;24.10;;;;;;;0.75;77.90;101423.48;109900;1283;22165;-85
2024/01/21 22:05:39;;;;;;;28.00;22.50;;;;;;;0.75;77.77;101414.61;109912;1283;22337;-88